Time;durP1;ratioP1;P1;durP2;ratioP2;P2;SDS_P1;SDS_P2;PMS_P1;PMS_P2;Temp;Humidity;BMP_temperature;BMP_pressure;BME280_temperature;BME280_humidity;BME280_pressure;Samples;Min_cycle;Max_cycle;Signal;HPM_P1;HPM_P2
2022/08/19 00:01:53;;;;;;;12.90;11.70;;;28.30;48.20;;;;;;4944598;28;20440;-46
2022/08/19 00:04:22;;;;;;;12.20;11.20;;;28.40;48.00;;;;;;4942407;28;20475;-46
2022/08/19 00:06:48;;;;;;;13.60;12.30;;;28.30;48.30;;;;;;4946144;28;20439;-50
2022/08/19 00:09:16;;;;;;;13.77;12.67;;;28.30;48.20;;;;;;4943178;28;20527;-46
2022/08/19 00:11:43;;;;;;;13.70;12.60;;;28.40;47.90;;;;;;4944300;29;20203;-48
2022/08/19 00:14:15;;;;;;;13.70;12.60;;;28.40;47.80;;;;;;4947317;28;20479;-48
2022/08/19 00:16:43;;;;;;;12.50;11.50;;;28.30;48.10;;;;;;4945391;28;20834;-48
2022/08/19 00:19:09;;;;;;;12.53;11.23;;;28.30;48.10;;;;;;4944314;28;20439;-46
2022/08/19 00:21:39;;;;;;;13.23;12.20;;;28.20;48.20;;;;;;4948339;28;20812;-46
2022/08/19 00:24:08;;;;;;;13.07;11.97;;;28.20;48.40;;;;;;4948618;28;20511;-46
2022/08/19 00:26:34;;;;;;;13.97;12.67;;;28.10;48.40;;;;;;4950431;28;20447;-45
2022/08/19 00:29:00;;;;;;;13.47;12.37;;;27.90;48.80;;;;;;4950510;29;20954;-44
2022/08/19 00:31:27;;;;;;;14.00;12.70;;;28.00;48.70;;;;;;4950468;28;20555;-47
2022/08/19 00:33:53;;;;;;;12.10;11.00;;;28.10;48.50;;;;;;4945861;28;20594;-45
2022/08/19 00:36:19;;;;;;;13.20;12.10;;;28.00;48.60;;;;;;4949950;28;20583;-44
2022/08/19 00:38:46;;;;;;;15.43;14.00;;;28.00;48.60;;;;;;4950493;28;20997;-47
2022/08/19 00:41:17;;;;;;;13.90;12.73;;;28.10;48.50;;;;;;4948346;28;20480;-46
2022/08/19 00:43:43;;;;;;;14.93;13.60;;;28.10;48.60;;;;;;4949019;28;20447;-49
2022/08/19 00:46:09;;;;;;;14.07;12.77;;;28.10;48.60;;;;;;4949151;28;20599;-45
2022/08/19 00:48:35;;;;;;;14.03;12.83;;;27.90;48.90;;;;;;4949874;28;20228;-45
2022/08/19 00:51:01;;;;;;;14.97;13.57;;;27.90;49.10;;;;;;4948929;28;20204;-45
2022/08/19 00:53:29;;;;;;;15.17;13.67;;;27.70;49.20;;;;;;4951586;28;20463;-47
2022/08/19 00:55:57;;;;;;;12.90;11.90;;;27.80;49.40;;;;;;4951049;28;20652;-44
2022/08/19 00:58:27;;;;;;;13.97;12.80;;;27.70;49.60;;;;;;4949892;28;20451;-45
2022/08/19 01:00:53;;;;;;;14.67;13.30;;;27.70;49.50;;;;;;4948335;28;20447;-45
2022/08/19 01:03:20;;;;;;;14.40;13.10;;;27.80;49.50;;;;;;4949393;28;20440;-46
2022/08/19 01:05:46;;;;;;;16.03;14.53;;;27.80;49.50;;;;;;4949915;28;20671;-44
2022/08/19 01:08:15;;;;;;;15.40;14.10;;;27.80;50.00;;;;;;4950007;28;20824;-48
2022/08/19 01:10:44;;;;;;;14.17;12.97;;;27.80;49.40;;;;;;4949578;28;20447;-44
2022/08/19 01:13:11;;;;;;;15.10;13.80;;;27.70;49.70;;;;;;4951998;28;21176;-44
2022/08/19 01:15:44;;;;;;;14.20;13.00;;;27.70;49.70;;;;;;4954806;28;20427;-46
2022/08/19 01:18:13;;;;;;;14.13;12.73;;;27.70;49.60;;;;;;4953267;28;20459;-45
2022/08/19 01:20:40;;;;;;;16.00;14.50;;;27.70;49.60;;;;;;4952388;28;20923;-45
2022/08/19 01:23:06;;;;;;;13.70;12.40;;;27.70;49.60;;;;;;4954416;28;20442;-48
2022/08/19 01:25:41;;;;;;;14.10;12.67;;;27.70;49.80;;;;;;4953428;28;20939;-47
2022/08/19 01:28:07;;;;;;;14.03;12.73;;;27.60;50.00;;;;;;4951233;28;20211;-44
2022/08/19 01:30:35;;;;;;;13.53;12.33;;;27.60;49.70;;;;;;4953078;28;20451;-46
2022/08/19 01:33:02;;;;;;;14.90;13.47;;;27.50;50.20;;;;;;4954120;28;21133;-45
2022/08/19 01:35:29;;;;;;;14.40;13.20;;;27.60;49.80;;;;;;4948234;28;20451;-48
2022/08/19 01:38:02;;;;;;;14.10;12.87;;;27.60;49.80;;;;;;4948130;28;20966;-45
2022/08/19 01:40:32;;;;;;;14.43;13.13;;;27.60;49.80;;;;;;4951746;28;22166;-45
2022/08/19 01:42:59;;;;;;;14.30;13.10;;;27.60;49.90;;;;;;4947693;28;20444;-47
2022/08/19 01:45:27;;;;;;;15.33;14.03;;;27.60;49.90;;;;;;4945426;28;20454;-46
2022/08/19 01:47:54;;;;;;;14.83;13.33;;;27.60;50.00;;;;;;4944696;28;20947;-46
2022/08/19 01:50:20;;;;;;;15.23;13.63;;;27.60;49.70;;;;;;4946649;28;20542;-45
2022/08/19 01:52:47;;;;;;;14.27;12.90;;;27.60;49.80;;;;;;4941972;28;20466;-45
2022/08/19 01:55:17;;;;;;;15.07;13.67;;;27.50;50.20;;;;;;4948751;28;20936;-45
2022/08/19 01:57:45;;;;;;;13.10;12.00;;;27.30;50.50;;;;;;4941413;28;20495;-45
2022/08/19 02:00:15;;;;;;;14.40;13.13;;;27.50;50.30;;;;;;4947641;28;20498;-46
2022/08/19 02:02:41;;;;;;;14.30;13.00;;;27.50;50.10;;;;;;4949066;28;20455;-44
2022/08/19 02:05:07;;;;;;;15.57;14.17;;;27.40;50.30;;;;;;4948190;28;20479;-45
2022/08/19 02:07:34;;;;;;;15.20;13.83;;;27.40;50.30;;;;;;4944679;28;20494;-48
2022/08/19 02:10:09;;;;;;;14.00;12.70;;;27.50;50.20;;;;;;4947742;28;20454;-45
2022/08/19 02:12:35;;;;;;;15.80;14.23;;;27.30;50.50;;;;;;4941207;29;20486;-49
2022/08/19 02:15:02;;;;;;;16.00;14.47;;;27.50;50.30;;;;;;4944239;28;20448;-46
2022/08/19 02:17:28;;;;;;;15.70;14.20;;;27.50;50.20;;;;;;4943192;28;20518;-45
2022/08/19 02:19:55;;;;;;;15.43;13.87;;;27.40;50.30;;;;;;4950502;28;20459;-48
2022/08/19 02:22:21;;;;;;;15.33;13.83;;;27.30;50.40;;;;;;4944081;28;20440;-45
2022/08/19 02:24:47;;;;;;;15.00;13.60;;;27.40;50.40;;;;;;4938450;28;20450;-45
2022/08/19 02:27:14;;;;;;;15.20;13.80;;;27.30;50.50;;;;;;4944038;28;20195;-45
2022/08/19 02:29:40;;;;;;;14.03;12.83;;;27.20;51.00;;;;;;4951616;28;20447;-45
2022/08/19 02:32:06;;;;;;;15.33;13.93;;;27.30;50.80;;;;;;4950415;28;20459;-46
2022/08/19 02:34:33;;;;;;;14.90;13.50;;;27.20;50.80;;;;;;4952699;28;20447;-45
2022/08/19 02:36:58;;;;;;;14.97;13.67;;;27.30;50.60;;;;;;4950966;28;20912;-44
2022/08/19 02:39:24;;;;;;;14.73;13.10;;;27.40;50.60;;;;;;4952499;28;20444;-45
2022/08/19 02:41:51;;;;;;;14.13;12.87;;;27.10;50.90;;;;;;4951732;28;20191;-45
2022/08/19 02:44:17;;;;;;;17.20;14.00;;;27.10;51.20;;;;;;4951609;28;20208;-46
2022/08/19 02:46:46;;;;;;;18.87;12.90;;;27.20;51.20;;;;;;4952386;28;20439;-48
2022/08/19 02:49:12;;;;;;;15.73;13.97;;;27.10;51.20;;;;;;4952183;28;20947;-46
2022/08/19 02:51:41;;;;;;;16.47;14.77;;;27.10;51.10;;;;;;4949923;28;20483;-45
2022/08/19 02:54:08;;;;;;;15.70;14.13;;;27.30;50.70;;;;;;4951437;28;20474;-47
2022/08/19 02:56:36;;;;;;;16.07;14.43;;;27.40;50.50;;;;;;4952545;28;20850;-45
2022/08/19 02:59:02;;;;;;;15.80;14.40;;;27.20;51.00;;;;;;4950709;28;20443;-46
2022/08/19 03:01:31;;;;;;;15.07;13.73;;;27.00;51.40;;;;;;4950362;28;20478;-45
2022/08/19 03:03:59;;;;;;;15.07;13.67;;;27.10;51.50;;;;;;4948589;28;20445;-46
2022/08/19 03:06:25;;;;;;;15.20;13.80;;;27.10;51.50;;;;;;4951638;28;20958;-48
2022/08/19 03:08:51;;;;;;;17.03;15.37;;;27.10;51.70;;;;;;4949774;28;20447;-45
2022/08/19 03:11:36;;;;;;;14.70;13.40;;;27.10;51.50;;;;;;4950078;28;21014;-45
2022/08/19 03:14:03;;;;;;;15.03;13.73;;;27.00;51.60;;;;;;4949137;28;20479;-47
2022/08/19 03:16:31;;;;;;;15.80;14.13;;;27.10;51.40;;;;;;4950292;28;20487;-48
2022/08/19 03:19:00;;;;;;;15.50;14.00;;;27.20;51.30;;;;;;4949670;28;20454;-45
2022/08/19 03:21:28;;;;;;;14.67;13.37;;;27.10;51.30;;;;;;4948518;28;20467;-45
2022/08/19 03:23:55;;;;;;;15.67;14.23;;;27.10;52.00;;;;;;4948225;28;20786;-46
2022/08/19 03:26:21;;;;;;;18.10;14.87;;;27.10;51.80;;;;;;4952844;28;20987;-45
2022/08/19 03:28:49;;;;;;;15.27;13.83;;;27.00;51.70;;;;;;4949043;28;20602;-46
2022/08/19 03:31:17;;;;;;;16.20;14.73;;;27.10;51.40;;;;;;4946681;28;20196;-47
2022/08/19 03:33:43;;;;;;;16.50;14.33;;;27.10;51.50;;;;;;4948259;28;20459;-46
2022/08/19 03:36:14;;;;;;;16.57;15.13;;;27.10;51.40;;;;;;4943883;28;20476;-47
2022/08/19 03:38:47;;;;;;;16.07;14.67;;;27.10;51.70;;;;;;4949080;28;20502;-46
2022/08/19 03:41:17;;;;;;;15.83;14.40;;;27.10;51.60;;;;;;4951201;28;20962;-46
2022/08/19 03:43:46;;;;;;;18.30;14.43;;;27.10;51.40;;;;;;4947749;28;20472;-48
2022/08/19 03:46:15;;;;;;;15.13;13.53;;;27.00;51.60;;;;;;4942866;28;20459;-46
2022/08/19 03:48:42;;;;;;;15.33;13.83;;;27.10;51.60;;;;;;4941758;28;20939;-45
2022/08/19 03:51:19;;;;;;;15.50;14.00;;;27.10;51.50;;;;;;4929386;29;20451;-47
2022/08/19 03:53:46;;;;;;;17.73;16.07;;;27.10;51.30;;;;;;4944194;28;20518;-45
2022/08/19 03:56:12;;;;;;;15.70;14.30;;;27.10;51.70;;;;;;4946464;28;20483;-45
2022/08/19 03:58:39;;;;;;;17.63;15.80;;;27.10;51.50;;;;;;4950076;28;20673;-49
2022/08/19 04:01:09;;;;;;;15.60;14.20;;;27.20;51.50;;;;;;4946970;28;20451;-49
2022/08/19 04:03:35;;;;;;;15.87;14.33;;;27.10;51.50;;;;;;4948030;28;20554;-46
2022/08/19 04:06:20;;;;;;;16.43;14.93;;;27.20;51.50;;;;;;4945805;28;20494;-47
2022/08/19 04:08:47;;;;;;;17.33;14.80;;;27.10;51.50;;;;;;4944479;28;21018;-45
2022/08/19 04:11:16;;;;;;;16.87;15.27;;;27.10;51.50;;;;;;4949085;28;20447;-48
2022/08/19 04:13:44;;;;;;;15.50;13.90;;;27.10;51.50;;;;;;4942870;28;20567;-48
2022/08/19 04:16:10;;;;;;;15.60;14.00;;;27.00;51.90;;;;;;4942417;28;20490;-46
2022/08/19 04:18:38;;;;;;;16.80;15.23;;;27.10;51.80;;;;;;4947325;28;20475;-48
2022/08/19 04:21:05;;;;;;;17.47;15.80;;;27.10;51.70;;;;;;4947568;28;20451;-47
2022/08/19 04:23:31;;;;;;;16.07;14.50;;;27.10;51.50;;;;;;4941971;28;20587;-47
2022/08/19 04:25:57;;;;;;;16.63;14.97;;;27.00;51.70;;;;;;4944080;28;20455;-44
2022/08/19 04:28:25;;;;;;;16.60;14.87;;;27.10;51.70;;;;;;4944673;28;20442;-44
2022/08/19 04:30:53;;;;;;;17.47;15.80;;;27.10;51.70;;;;;;4947524;28;20196;-45
2022/08/19 04:33:23;;;;;;;19.80;17.67;;;27.30;51.20;;;;;;4944567;28;21048;-45
2022/08/19 04:35:51;;;;;;;18.97;17.00;;;27.40;51.10;;;;;;4942637;28;20641;-46
2022/08/19 04:38:20;;;;;;;19.83;17.80;;;27.40;51.00;;;;;;4940731;28;20460;-47
2022/08/19 04:43:36;;;;;;;18.73;16.83;;;27.40;51.30;;;;;;4941135;28;20973;-44
2022/08/19 04:46:12;;;;;;;18.20;16.50;;;27.30;51.50;;;;;;4941870;28;20452;-45
2022/08/19 04:48:38;;;;;;;18.17;14.97;;;27.10;51.80;;;;;;4944213;28;21856;-47
2022/08/19 04:51:10;;;;;;;19.20;17.40;;;27.10;51.90;;;;;;4946273;28;20463;-49
2022/08/19 04:53:38;;;;;;;18.90;17.23;;;27.10;51.70;;;;;;4945890;28;20547;-49
2022/08/19 04:56:10;;;;;;;17.10;15.50;;;27.20;51.60;;;;;;4947013;28;20458;-49
2022/08/19 04:58:37;;;;;;;18.97;17.07;;;27.20;51.60;;;;;;4946413;29;20534;-45
2022/08/19 05:01:04;;;;;;;19.07;17.17;;;27.20;51.60;;;;;;4951105;28;20526;-46
2022/08/19 05:03:33;;;;;;;20.73;18.93;;;27.10;51.80;;;;;;4950392;29;21018;-48
2022/08/19 05:06:07;;;;;;;21.23;19.00;;;27.00;51.80;;;;;;4949258;28;20478;-47
2022/08/19 05:08:36;;;;;;;20.60;18.63;;;27.10;51.90;;;;;;4948769;29;20926;-49
2022/08/19 05:11:07;;;;;;;19.33;17.53;;;27.10;51.80;;;;;;4942417;28;20451;-48
2022/08/19 05:13:32;;;;;;;21.87;19.67;;;27.00;51.90;;;;;;4943738;28;20486;-47
2022/08/19 05:15:59;;;;;;;21.67;19.47;;;27.10;51.80;;;;;;4940540;28;20456;-48
2022/08/19 05:23:57;;;;;;;20.93;18.90;;;27.00;51.80;;;;;;4947934;28;20494;-45
2022/08/19 05:26:25;;;;;;;19.57;17.60;;;26.90;51.90;;;;;;4949186;28;20483;-46
2022/08/19 05:28:53;;;;;;;21.07;19.03;;;26.90;52.10;;;;;;4944518;28;20228;-44
2022/08/19 05:31:19;;;;;;;20.90;18.80;;;26.90;52.10;;;;;;4945971;28;20454;-46
2022/08/19 05:33:44;;;;;;;21.13;19.00;;;27.00;51.90;;;;;;4946317;28;20435;-48
2022/08/19 05:36:10;;;;;;;20.90;18.97;;;27.10;51.80;;;;;;4948915;28;20989;-45
2022/08/19 05:38:36;;;;;;;21.63;19.43;;;27.10;51.70;;;;;;4950008;28;20200;-44
2022/08/19 05:41:13;;;;;;;21.10;19.10;;;27.20;52.20;;;;;;4952880;29;20440;-44
2022/08/19 05:43:39;;;;;;;22.23;20.33;;;27.20;51.60;;;;;;4954959;29;20447;-45
2022/08/19 05:46:08;;;;;;;21.97;19.93;;;27.20;51.50;;;;;;4954708;29;20439;-44
2022/08/19 05:48:35;;;;;;;22.67;20.60;;;27.20;51.50;;;;;;4953235;29;20208;-44
2022/08/19 05:51:08;;;;;;;20.97;18.83;;;27.20;51.60;;;;;;4952764;28;20499;-45
2022/08/19 05:53:34;;;;;;;21.07;18.97;;;27.20;51.60;;;;;;4953332;28;20951;-44
2022/08/19 05:56:08;;;;;;;19.40;17.20;;;27.20;51.70;;;;;;4951753;28;20450;-44
2022/08/19 05:58:35;;;;;;;20.27;18.20;;;27.10;51.80;;;;;;4953912;29;20458;-44
2022/08/19 06:01:04;;;;;;;18.63;17.03;;;27.10;52.00;;;;;;4952690;28;20525;-46
2022/08/19 06:03:31;;;;;;;23.57;18.73;;;27.10;51.80;;;;;;4954678;29;20428;-47
2022/08/19 06:05:59;;;;;;;21.20;19.07;;;27.20;51.60;;;;;;4949421;28;20443;-45
2022/08/19 06:08:25;;;;;;;21.90;19.60;;;27.20;51.70;;;;;;4953228;28;20432;-47
2022/08/19 06:10:51;;;;;;;20.03;18.03;;;27.20;51.70;;;;;;4954054;29;20431;-46
2022/08/19 06:13:19;;;;;;;19.33;17.47;;;27.20;51.70;;;;;;4952023;28;20483;-44
2022/08/19 06:15:46;;;;;;;21.27;19.37;;;27.10;51.70;;;;;;4952913;28;20206;-44
2022/08/19 06:18:12;;;;;;;20.60;18.53;;;27.10;51.70;;;;;;4952411;28;20487;-45
2022/08/19 06:20:38;;;;;;;22.50;20.43;;;27.10;51.80;;;;;;4951024;28;20448;-48
2022/08/19 06:23:04;;;;;;;21.83;19.60;;;27.10;51.80;;;;;;4953814;28;20471;-46
2022/08/19 06:25:30;;;;;;;22.03;20.03;;;27.10;51.80;;;;;;4951908;28;20200;-45
2022/08/19 06:27:55;;;;;;;20.13;18.23;;;27.00;52.00;;;;;;4952354;28;20216;-45
2022/08/19 06:30:21;;;;;;;19.20;17.50;;;26.80;52.60;;;;;;4946147;28;20510;-47
2022/08/19 06:32:47;;;;;;;18.60;16.70;;;26.60;53.00;;;;;;4954328;28;20628;-44
2022/08/19 06:35:14;;;;;;;17.90;16.17;;;26.60;53.30;;;;;;4949380;28;20200;-46
2022/08/19 06:37:40;;;;;;;19.50;17.67;;;26.50;53.40;;;;;;4952296;28;20246;-45
2022/08/19 06:40:08;;;;;;;18.63;16.93;;;26.70;53.40;;;;;;4951649;28;20482;-48
2022/08/19 06:42:34;;;;;;;18.07;16.27;;;26.70;53.20;;;;;;4953887;29;20467;-45
2022/08/19 06:45:03;;;;;;;19.73;17.67;;;26.70;53.10;;;;;;4953250;29;20927;-45
2022/08/19 06:47:29;;;;;;;18.87;16.97;;;26.70;53.00;;;;;;4952388;29;20444;-49
2022/08/19 06:49:59;;;;;;;18.73;16.90;;;26.70;53.10;;;;;;4952279;29;21004;-46
2022/08/19 06:52:25;;;;;;;19.60;17.70;;;26.70;53.00;;;;;;4953735;29;20273;-45
2022/08/19 06:54:51;;;;;;;20.60;18.53;;;26.80;52.70;;;;;;4953174;29;20440;-45
2022/08/19 06:57:16;;;;;;;19.97;18.07;;;27.00;52.50;;;;;;4952146;28;20234;-46
2022/08/19 06:59:42;;;;;;;20.97;19.00;;;27.00;52.40;;;;;;4951851;29;20196;-46
2022/08/19 07:02:08;;;;;;;20.87;19.07;;;26.90;52.40;;;;;;4952136;29;20204;-45
2022/08/19 07:04:35;;;;;;;21.40;19.33;;;26.90;52.50;;;;;;4951939;29;20195;-45
2022/08/19 07:07:12;;;;;;;21.03;19.03;;;27.00;53.00;;;;;;4953125;29;20287;-46
2022/08/19 07:09:40;;;;;;;18.70;16.80;;;27.00;52.50;;;;;;4952132;29;20435;-45
2022/08/19 07:12:09;;;;;;;23.00;18.97;;;27.10;52.30;;;;;;4952502;28;20535;-47
2022/08/19 07:14:37;;;;;;;20.83;18.40;;;27.10;52.60;;;;;;4952089;28;21256;-45
2022/08/19 07:17:09;;;;;;;20.03;18.10;;;27.10;52.40;;;;;;4951353;29;20507;-45
2022/08/19 07:19:36;;;;;;;20.07;18.07;;;27.10;52.60;;;;;;4947200;28;20502;-45
2022/08/19 07:22:04;;;;;;;19.03;17.23;;;27.10;53.10;;;;;;4949485;28;20443;-45
2022/08/19 07:24:31;;;;;;;21.30;19.20;;;27.00;53.10;;;;;;4945903;28;20832;-46
2022/08/19 07:27:00;;;;;;;19.27;17.50;;;26.90;53.70;;;;;;4946970;28;21010;-49
2022/08/19 07:29:26;;;;;;;25.63;20.50;;;26.90;53.70;;;;;;4950550;29;20523;-45
2022/08/19 07:31:55;;;;;;;20.87;18.50;;;27.10;54.10;;;;;;4949298;28;20510;-46
2022/08/19 07:34:22;;;;;;;23.03;20.93;;;27.10;53.80;;;;;;4950092;28;20538;-45
2022/08/19 07:36:49;;;;;;;22.30;20.20;;;27.20;54.20;;;;;;4948924;28;20491;-46
2022/08/19 07:39:31;;;;;;;23.57;21.27;;;27.20;54.00;;;;;;4949389;28;20558;-46
2022/08/19 07:41:58;;;;;;;23.47;21.20;;;27.20;54.30;;;;;;4950145;28;20475;-48
2022/08/19 07:44:24;;;;;;;21.70;19.73;;;27.10;54.40;;;;;;4948496;28;20451;-45
2022/08/19 07:46:53;;;;;;;21.67;19.60;;;27.00;54.90;;;;;;4949955;28;20447;-48
2022/08/19 07:49:20;;;;;;;23.43;20.93;;;27.00;54.70;;;;;;4947152;28;20447;-48
2022/08/19 07:52:16;;;;;;;20.60;18.70;;;26.90;54.90;;;;;;4950809;28;20981;-46
2022/08/19 07:54:42;;;;;;;22.73;19.33;;;27.00;54.90;;;;;;4935992;28;20542;-49
2022/08/19 07:57:08;;;;;;;22.30;20.00;;;27.00;55.00;;;;;;4947085;28;20914;-47
2022/08/19 07:59:33;;;;;;;21.00;19.10;;;27.00;54.90;;;;;;4946491;28;20188;-46
2022/08/19 08:02:00;;;;;;;22.27;20.07;;;27.00;55.30;;;;;;4951621;29;20868;-45
2022/08/19 08:09:54;;;;;;;21.17;18.97;;;27.00;55.60;;;;;;4950910;29;20941;-47
2022/08/19 08:12:30;;;;;;;17.30;15.80;;;26.90;55.40;;;;;;4950944;29;20451;-46
2022/08/19 08:15:01;;;;;;;18.53;16.83;;;26.80;55.80;;;;;;4946851;28;20191;-46
2022/08/19 08:17:29;;;;;;;20.70;18.70;;;26.80;55.70;;;;;;4951058;29;20501;-45
2022/08/19 08:19:56;;;;;;;20.57;18.50;;;26.90;55.80;;;;;;4952319;29;20424;-44
2022/08/19 08:25:12;;;;;;;20.67;18.57;;;27.00;55.80;;;;;;4947826;28;20888;-45
2022/08/19 08:27:42;;;;;;;20.10;18.00;;;26.90;55.60;;;;;;4947698;28;20448;-51
2022/08/19 08:30:20;;;;;;;20.80;18.73;;;26.80;55.70;;;;;;4947416;28;20451;-46
2022/08/19 08:32:46;;;;;;;19.73;17.93;;;26.80;55.90;;;;;;4949002;28;20447;-45
2022/08/19 08:35:16;;;;;;;20.63;18.33;;;26.70;56.30;;;;;;4949064;28;20526;-45
2022/08/19 08:37:43;;;;;;;19.33;17.43;;;26.70;56.30;;;;;;4940114;28;20238;-48
2022/08/19 08:40:51;;;;;;;21.47;19.33;;;26.60;56.50;;;;;;4941905;28;20503;-49
2022/08/19 08:43:51;;;;;;;19.90;18.00;;;26.40;56.70;;;;;;4944844;28;20498;-47
2022/08/19 08:46:45;;;;;;;22.23;19.83;;;26.30;57.10;;;;;;4922211;28;20575;-48
2022/08/19 08:49:33;;;;;;;21.33;19.37;;;26.20;57.50;;;;;;4948943;28;20468;-52
2022/08/19 08:52:01;;;;;;;20.57;18.73;;;26.10;57.70;;;;;;4944382;28;20452;-50
2022/08/19 08:54:39;;;;;;;20.33;18.33;;;26.10;57.80;;;;;;4944743;28;20994;-47
2022/08/19 08:57:17;;;;;;;19.73;17.73;;;26.10;57.90;;;;;;4948566;28;20492;-48
2022/08/19 08:59:46;;;;;;;21.07;18.97;;;25.90;58.40;;;;;;4945934;28;22167;-47
2022/08/19 09:02:12;;;;;;;22.53;20.43;;;25.90;58.50;;;;;;4944753;28;20454;-49
2022/08/19 09:04:38;;;;;;;21.73;19.67;;;25.90;58.70;;;;;;4945669;28;21022;-48
2022/08/19 09:07:22;;;;;;;21.47;19.47;;;25.90;58.50;;;;;;4947665;28;20584;-46
2022/08/19 09:09:56;;;;;;;21.43;18.83;;;26.00;58.70;;;;;;4948834;28;21014;-44
2022/08/19 09:12:41;;;;;;;22.80;20.60;;;26.10;58.50;;;;;;4949433;28;20818;-49
2022/08/19 09:15:11;;;;;;;21.20;19.10;;;25.90;58.90;;;;;;4945226;28;20463;-44
2022/08/19 09:17:38;;;;;;;23.37;21.07;;;25.90;59.10;;;;;;4944575;28;20494;-49
2022/08/19 09:20:10;;;;;;;21.80;19.63;;;25.90;59.10;;;;;;4945823;28;20451;-46
2022/08/19 09:22:40;;;;;;;21.70;19.60;;;26.00;59.10;;;;;;4948841;28;20466;-48
2022/08/19 09:25:09;;;;;;;22.10;19.37;;;26.10;59.10;;;;;;4947831;28;20459;-48
2022/08/19 09:27:37;;;;;;;22.03;19.80;;;26.20;59.00;;;;;;4949006;28;20501;-46
2022/08/19 09:30:04;;;;;;;21.80;19.70;;;26.20;58.80;;;;;;4946806;28;20969;-46
2022/08/19 09:32:30;;;;;;;23.00;20.87;;;26.20;58.80;;;;;;4942330;28;20592;-46
2022/08/19 09:34:57;;;;;;;20.77;18.77;;;26.30;58.80;;;;;;4947185;28;20821;-47
2022/08/19 09:37:24;;;;;;;20.47;18.40;;;26.20;59.30;;;;;;4947920;28;20231;-46
2022/08/19 09:39:50;;;;;;;22.43;19.07;;;26.20;59.50;;;;;;4952684;28;20447;-49
2022/08/19 09:42:16;;;;;;;23.43;21.03;;;26.10;59.50;;;;;;4952040;28;20475;-46
2022/08/19 09:44:43;;;;;;;23.20;20.97;;;26.10;59.50;;;;;;4948351;28;20458;-49
2022/08/19 09:47:11;;;;;;;22.33;20.13;;;26.20;59.50;;;;;;4951359;29;20435;-46
2022/08/19 09:49:39;;;;;;;22.40;19.13;;;26.20;59.60;;;;;;4952413;29;20466;-49
2022/08/19 09:52:07;;;;;;;21.40;19.40;;;26.20;59.90;;;;;;4954429;29;20471;-48
2022/08/19 09:54:33;;;;;;;24.10;20.77;;;26.20;60.00;;;;;;4950681;28;20994;-46
2022/08/19 09:57:02;;;;;;;23.07;20.73;;;26.30;60.10;;;;;;4946881;28;20498;-49
2022/08/19 09:59:29;;;;;;;23.27;20.97;;;26.20;60.50;;;;;;4942097;28;20530;-48
2022/08/19 10:01:54;;;;;;;22.97;20.57;;;26.30;60.40;;;;;;4949158;28;20435;-45
2022/08/19 10:05:47;;;;;;;22.00;19.80;;;26.30;60.50;;;;;;4949542;28;20447;-49
2022/08/19 10:07:06;;;;;;;24.10;21.60;;;26.30;60.70;;;;;;4953288;29;20196;-46
2022/08/19 10:09:31;;;;;;;23.77;21.37;;;26.40;60.90;;;;;;4953064;28;20440;-48
2022/08/19 10:12:00;;;;;;;22.80;20.60;;;26.40;61.10;;;;;;4948834;28;20279;-47
2022/08/19 10:14:25;;;;;;;24.97;21.67;;;26.50;61.10;;;;;;4945589;28;20236;-46
2022/08/19 10:16:51;;;;;;;23.13;20.83;;;26.40;60.80;;;;;;4947414;28;21062;-47
2022/08/19 10:19:16;;;;;;;21.57;19.47;;;26.50;61.20;;;;;;4950215;28;20220;-48
2022/08/19 10:21:42;;;;;;;22.90;20.57;;;26.50;61.10;;;;;;4950920;28;20659;-47
2022/08/19 10:24:07;;;;;;;23.50;21.40;;;26.50;61.10;;;;;;4950136;28;20200;-46
2022/08/19 10:26:36;;;;;;;22.20;20.10;;;26.60;61.60;;;;;;4951810;28;20686;-46
2022/08/19 10:29:04;;;;;;;24.07;21.57;;;26.60;61.40;;;;;;4950070;28;20211;-46
2022/08/19 10:31:31;;;;;;;23.43;20.80;;;26.60;61.20;;;;;;4948353;28;20843;-46
2022/08/19 10:33:57;;;;;;;24.37;21.87;;;26.70;61.50;;;;;;4951478;28;20443;-46
2022/08/19 10:36:35;;;;;;;23.40;21.07;;;26.70;61.60;;;;;;4949528;28;20471;-46
2022/08/19 10:39:04;;;;;;;23.80;21.40;;;26.70;61.60;;;;;;4948069;28;20791;-46
2022/08/19 10:41:33;;;;;;;21.47;19.47;;;26.70;61.10;;;;;;4949963;28;20819;-46
2022/08/19 10:44:02;;;;;;;23.50;21.30;;;26.80;61.20;;;;;;4947938;28;20967;-46
2022/08/19 10:46:32;;;;;;;18.90;17.07;;;26.80;61.10;;;;;;4944644;28;20473;-49
2022/08/19 10:49:02;;;;;;;17.70;15.50;;;26.80;60.70;;;;;;4940764;28;20514;-46
2022/08/19 10:54:12;;;;;;;20.10;18.10;;;26.80;60.30;;;;;;4949225;28;20487;-50
2022/08/19 10:56:53;;;;;;;24.87;22.37;;;26.80;60.80;;;;;;4948317;28;20489;-49
2022/08/19 10:59:22;;;;;;;21.53;18.57;;;26.80;60.80;;;;;;4948674;28;20196;-49
2022/08/19 11:01:50;;;;;;;19.53;17.63;;;26.80;60.80;;;;;;4952780;28;20530;-50
2022/08/19 11:04:17;;;;;;;21.63;19.60;;;26.80;61.30;;;;;;4951760;28;20444;-50
2022/08/19 11:06:47;;;;;;;21.93;19.83;;;26.80;61.70;;;;;;4950201;29;20443;-50
2022/08/19 11:09:14;;;;;;;24.17;21.70;;;26.80;61.60;;;;;;4950089;28;20960;-50
2022/08/19 11:11:41;;;;;;;18.90;17.10;;;26.90;61.30;;;;;;4947902;28;20460;-50
2022/08/19 11:14:12;;;;;;;17.60;15.90;;;26.90;60.70;;;;;;4949972;28;21287;-47
2022/08/19 11:16:38;;;;;;;19.87;17.97;;;26.90;60.10;;;;;;4949287;28;20499;-50
2022/08/19 11:19:07;;;;;;;21.10;18.93;;;27.10;59.90;;;;;;4949053;28;20452;-51
2022/08/19 11:21:35;;;;;;;19.20;17.03;;;27.20;59.70;;;;;;4945560;28;20452;-47
2022/08/19 11:24:05;;;;;;;18.53;16.77;;;27.20;59.70;;;;;;4948703;28;20482;-46
2022/08/19 11:26:31;;;;;;;17.60;15.70;;;27.30;59.60;;;;;;4949886;28;20872;-50
2022/08/19 11:28:58;;;;;;;20.87;18.77;;;27.40;59.30;;;;;;4949582;28;20456;-49
2022/08/19 11:31:27;;;;;;;23.43;21.27;;;27.40;59.50;;;;;;4950091;28;20471;-49
2022/08/19 11:33:55;;;;;;;17.87;16.27;;;27.30;60.90;;;;;;4950381;28;20531;-50
2022/08/19 11:36:22;;;;;;;17.50;15.80;;;27.30;60.80;;;;;;4948059;28;20487;-49
2022/08/19 11:38:49;;;;;;;17.73;16.00;;;27.30;59.80;;;;;;4948356;28;20561;-47
2022/08/19 11:41:17;;;;;;;17.43;15.73;;;27.40;60.10;;;;;;4945795;28;20459;-49
2022/08/19 11:43:42;;;;;;;16.33;14.90;;;27.40;59.80;;;;;;4941483;28;20461;-50
2022/08/19 11:46:11;;;;;;;20.00;18.03;;;27.40;59.10;;;;;;4950198;29;20532;-46
2022/08/19 11:48:38;;;;;;;20.20;18.30;;;27.40;59.10;;;;;;4949502;28;20202;-49
2022/08/19 11:51:09;;;;;;;15.80;14.50;;;27.40;59.00;;;;;;4952101;29;20463;-49
2022/08/19 11:53:35;;;;;;;17.93;14.67;;;27.30;58.90;;;;;;4951658;28;20427;-46
2022/08/19 11:56:02;;;;;;;20.20;18.10;;;27.30;58.70;;;;;;4946609;28;20448;-47
2022/08/19 11:58:29;;;;;;;21.57;19.40;;;27.40;58.90;;;;;;4943905;28;20520;-50
2022/08/19 12:00:55;;;;;;;17.43;15.93;;;27.30;59.40;;;;;;4950371;28;20443;-48
2022/08/19 12:03:21;;;;;;;16.47;14.97;;;27.30;59.50;;;;;;4949210;28;20444;-47
2022/08/19 12:05:47;;;;;;;15.53;14.13;;;27.30;59.70;;;;;;4949009;28;20444;-50
2022/08/19 12:08:13;;;;;;;15.83;14.40;;;27.40;59.40;;;;;;4947045;28;20436;-49
2022/08/19 12:10:41;;;;;;;17.73;15.93;;;27.50;59.50;;;;;;4945502;28;20436;-47
2022/08/19 12:13:07;;;;;;;17.67;15.80;;;27.60;58.90;;;;;;4948990;28;20567;-50
2022/08/19 12:15:42;;;;;;;21.57;19.47;;;27.60;59.00;;;;;;4948266;28;20438;-46
2022/08/19 12:18:09;;;;;;;21.23;18.33;;;27.70;59.10;;;;;;4943751;28;20507;-49
2022/08/19 12:20:37;;;;;;;16.50;15.10;;;27.70;59.10;;;;;;4948117;28;20447;-47
2022/08/19 12:23:04;;;;;;;21.03;19.03;;;27.70;59.10;;;;;;4941900;28;20850;-49
2022/08/19 12:25:30;;;;;;;15.83;14.17;;;27.60;59.50;;;;;;4950807;28;20443;-48
2022/08/19 12:27:56;;;;;;;16.17;14.77;;;27.50;60.00;;;;;;4946343;28;20446;-47
2022/08/19 12:30:22;;;;;;;19.80;17.80;;;27.60;60.50;;;;;;4946348;28;20447;-47
2022/08/19 12:32:48;;;;;;;19.30;17.57;;;27.60;59.90;;;;;;4937957;28;20196;-46
2022/08/19 12:35:14;;;;;;;19.90;17.33;;;27.60;60.10;;;;;;4947787;29;20510;-48
2022/08/19 12:37:42;;;;;;;16.40;14.90;;;27.70;60.20;;;;;;4947600;28;20503;-46
2022/08/19 12:40:08;;;;;;;16.60;15.13;;;27.70;60.00;;;;;;4947165;29;20204;-47
2022/08/19 12:42:34;;;;;;;18.10;16.30;;;27.60;59.80;;;;;;4947087;28;20459;-46
2022/08/19 12:45:00;;;;;;;21.10;19.10;;;27.60;61.10;;;;;;4942544;28;20471;-50
2022/08/19 12:47:26;;;;;;;20.57;18.47;;;27.60;60.20;;;;;;4937773;28;20444;-45
2022/08/19 12:49:52;;;;;;;17.17;15.57;;;27.30;61.40;;;;;;4943525;28;20450;-46
2022/08/19 12:52:21;;;;;;;18.20;16.50;;;27.30;61.30;;;;;;4939815;28;20451;-45
2022/08/19 12:54:47;;;;;;;19.90;17.80;;;27.20;61.80;;;;;;4941180;28;20204;-46